sensor_id;sensor_type;location;lat;lon;timestamp;temperature;humidity
4637;DHT22;2331;48.806;9.140;2023-08-01T00:01:03;21.40;1.00
4637;DHT22;2331;48.806;9.140;2023-08-01T00:03:29;21.40;1.00
4637;DHT22;2331;48.806;9.140;2023-08-01T00:05:56;21.40;1.00
4637;DHT22;2331;48.806;9.140;2023-08-01T00:08:23;21.40;1.00
4637;DHT22;2331;48.806;9.140;2023-08-01T00:10:49;21.40;1.00
4637;DHT22;2331;48.806;9.140;2023-08-01T00:13:16;21.30;1.00
4637;DHT22;2331;48.806;9.140;2023-08-01T00:15:44;21.40;1.00
4637;DHT22;2331;48.806;9.140;2023-08-01T00:18:11;21.30;1.00
4637;DHT22;2331;48.806;9.140;2023-08-01T00:20:37;21.30;1.00
4637;DHT22;2331;48.806;9.140;2023-08-01T00:23:05;21.30;1.00
4637;DHT22;2331;48.806;9.140;2023-08-01T00:25:31;21.30;1.00
4637;DHT22;2331;48.806;9.140;2023-08-01T00:27:58;21.30;1.00
4637;DHT22;2331;48.806;9.140;2023-08-01T00:30:25;21.30;1.00
4637;DHT22;2331;48.806;9.140;2023-08-01T00:32:53;21.30;1.00
4637;DHT22;2331;48.806;9.140;2023-08-01T00:35:19;21.30;1.00
4637;DHT22;2331;48.806;9.140;2023-08-01T00:37:46;21.30;1.00
4637;DHT22;2331;48.806;9.140;2023-08-01T00:40:13;21.30;1.00
4637;DHT22;2331;48.806;9.140;2023-08-01T00:42:41;21.20;1.00
4637;DHT22;2331;48.806;9.140;2023-08-01T00:45:09;21.20;1.00
4637;DHT22;2331;48.806;9.140;2023-08-01T00:47:36;21.20;1.00
4637;DHT22;2331;48.806;9.140;2023-08-01T00:50:05;21.20;1.00
4637;DHT22;2331;48.806;9.140;2023-08-01T00:52:33;21.30;1.00
4637;DHT22;2331;48.806;9.140;2023-08-01T00:55:00;21.30;1.00
4637;DHT22;2331;48.806;9.140;2023-08-01T00:57:27;21.30;1.00
4637;DHT22;2331;48.806;9.140;2023-08-01T00:59:54;21.30;1.00
4637;DHT22;2331;48.806;9.140;2023-08-01T01:02:20;21.30;1.00
4637;DHT22;2331;48.806;9.140;2023-08-01T01:04:47;21.20;1.00
4637;DHT22;2331;48.806;9.140;2023-08-01T01:07:17;21.20;1.00
4637;DHT22;2331;48.806;9.140;2023-08-01T01:09:44;21.20;1.00
4637;DHT22;2331;48.806;9.140;2023-08-01T01:12:10;21.20;1.00
4637;DHT22;2331;48.806;9.140;2023-08-01T01:14:37;21.10;1.00
4637;DHT22;2331;48.806;9.140;2023-08-01T01:17:04;21.10;1.00
4637;DHT22;2331;48.806;9.140;2023-08-01T01:19:31;21.10;1.00
4637;DHT22;2331;48.806;9.140;2023-08-01T01:21:59;21.10;1.00
4637;DHT22;2331;48.806;9.140;2023-08-01T01:24:27;21.20;1.00
4637;DHT22;2331;48.806;9.140;2023-08-01T01:26:55;21.10;1.00
4637;DHT22;2331;48.806;9.140;2023-08-01T01:29:25;21.10;1.00
4637;DHT22;2331;48.806;9.140;2023-08-01T01:31:52;21.10;1.00
4637;DHT22;2331;48.806;9.140;2023-08-01T01:34:20;21.10;1.00
4637;DHT22;2331;48.806;9.140;2023-08-01T01:36:47;21.00;1.00
4637;DHT22;2331;48.806;9.140;2023-08-01T01:39:15;21.00;1.00
4637;DHT22;2331;48.806;9.140;2023-08-01T01:41:42;20.90;1.00
4637;DHT22;2331;48.806;9.140;2023-08-01T01:44:08;21.00;1.00
4637;DHT22;2331;48.806;9.140;2023-08-01T01:46:35;21.00;1.00
4637;DHT22;2331;48.806;9.140;2023-08-01T01:49:02;20.90;1.00
4637;DHT22;2331;48.806;9.140;2023-08-01T01:51:29;20.90;1.00
4637;DHT22;2331;48.806;9.140;2023-08-01T01:53:56;20.90;1.00
4637;DHT22;2331;48.806;9.140;2023-08-01T01:56:24;20.90;1.00
4637;DHT22;2331;48.806;9.140;2023-08-01T01:58:51;20.90;1.00
4637;DHT22;2331;48.806;9.140;2023-08-01T02:01:18;20.90;1.00
4637;DHT22;2331;48.806;9.140;2023-08-01T02:03:44;20.90;1.00
4637;DHT22;2331;48.806;9.140;2023-08-01T02:06:11;20.90;1.00
4637;DHT22;2331;48.806;9.140;2023-08-01T02:08:38;20.90;1.00
4637;DHT22;2331;48.806;9.140;2023-08-01T02:11:04;21.00;1.00
4637;DHT22;2331;48.806;9.140;2023-08-01T02:13:32;20.90;1.00
4637;DHT22;2331;48.806;9.140;2023-08-01T02:15:59;20.90;1.00
4637;DHT22;2331;48.806;9.140;2023-08-01T02:18:26;20.90;1.00
4637;DHT22;2331;48.806;9.140;2023-08-01T02:20:53;20.90;1.00
4637;DHT22;2331;48.806;9.140;2023-08-01T02:23:19;20.90;1.00
4637;DHT22;2331;48.806;9.140;2023-08-01T02:25:46;20.90;1.00
4637;DHT22;2331;48.806;9.140;2023-08-01T02:28:13;20.90;1.00
4637;DHT22;2331;48.806;9.140;2023-08-01T02:30:42;20.90;1.00
4637;DHT22;2331;48.806;9.140;2023-08-01T02:33:08;20.90;1.00
4637;DHT22;2331;48.806;9.140;2023-08-01T02:35:35;20.80;1.00
4637;DHT22;2331;48.806;9.140;2023-08-01T02:38:02;20.90;1.00
4637;DHT22;2331;48.806;9.140;2023-08-01T02:40:29;20.80;1.00
4637;DHT22;2331;48.806;9.140;2023-08-01T02:42:56;20.90;1.00
4637;DHT22;2331;48.806;9.140;2023-08-01T02:45:22;20.90;1.00
4637;DHT22;2331;48.806;9.140;2023-08-01T02:47:50;20.90;1.00
4637;DHT22;2331;48.806;9.140;2023-08-01T02:50:17;20.90;1.00
4637;DHT22;2331;48.806;9.140;2023-08-01T02:52:44;20.90;1.00
4637;DHT22;2331;48.806;9.140;2023-08-01T02:55:10;20.90;1.00
4637;DHT22;2331;48.806;9.140;2023-08-01T02:57:37;20.90;1.00
4637;DHT22;2331;48.806;9.140;2023-08-01T03:00:05;20.90;1.00
4637;DHT22;2331;48.806;9.140;2023-08-01T03:02:37;20.90;1.00
4637;DHT22;2331;48.806;9.140;2023-08-01T03:05:06;20.90;1.00
4637;DHT22;2331;48.806;9.140;2023-08-01T03:07:33;20.90;1.00
4637;DHT22;2331;48.806;9.140;2023-08-01T03:09:59;20.90;1.00
4637;DHT22;2331;48.806;9.140;2023-08-01T03:12:27;20.90;1.00
4637;DHT22;2331;48.806;9.140;2023-08-01T03:14:53;20.90;1.00
4637;DHT22;2331;48.806;9.140;2023-08-01T03:17:20;20.80;1.00
4637;DHT22;2331;48.806;9.140;2023-08-01T03:19:46;20.80;1.00
4637;DHT22;2331;48.806;9.140;2023-08-01T03:22:16;20.80;1.00
4637;DHT22;2331;48.806;9.140;2023-08-01T03:24:43;20.80;1.00
4637;DHT22;2331;48.806;9.140;2023-08-01T03:27:09;20.90;1.00
4637;DHT22;2331;48.806;9.140;2023-08-01T03:29:36;20.80;1.00
4637;DHT22;2331;48.806;9.140;2023-08-01T03:32:04;20.80;1.00
4637;DHT22;2331;48.806;9.140;2023-08-01T03:34:31;20.80;1.00
4637;DHT22;2331;48.806;9.140;2023-08-01T03:36:57;20.90;1.00
4637;DHT22;2331;48.806;9.140;2023-08-01T03:39:25;20.90;1.00
4637;DHT22;2331;48.806;9.140;2023-08-01T03:41:52;20.80;1.00
4637;DHT22;2331;48.806;9.140;2023-08-01T03:44:19;20.80;1.00
4637;DHT22;2331;48.806;9.140;2023-08-01T03:46:45;20.60;1.00
4637;DHT22;2331;48.806;9.140;2023-08-01T03:49:13;20.60;1.00
4637;DHT22;2331;48.806;9.140;2023-08-01T03:51:39;20.50;1.00
4637;DHT22;2331;48.806;9.140;2023-08-01T03:54:06;20.50;1.00
4637;DHT22;2331;48.806;9.140;2023-08-01T03:56:34;20.40;1.00
4637;DHT22;2331;48.806;9.140;2023-08-01T03:59:01;20.40;1.00
4637;DHT22;2331;48.806;9.140;2023-08-01T04:01:29;20.40;1.00
4637;DHT22;2331;48.806;9.140;2023-08-01T04:03:56;20.50;1.00
4637;DHT22;2331;48.806;9.140;2023-08-01T04:06:23;20.50;1.00
4637;DHT22;2331;48.806;9.140;2023-08-01T04:08:49;20.40;1.00
4637;DHT22;2331;48.806;9.140;2023-08-01T04:11:17;20.40;1.00
4637;DHT22;2331;48.806;9.140;2023-08-01T04:13:45;20.50;1.00
4637;DHT22;2331;48.806;9.140;2023-08-01T04:16:11;20.40;1.00
4637;DHT22;2331;48.806;9.140;2023-08-01T04:18:38;20.50;1.00
4637;DHT22;2331;48.806;9.140;2023-08-01T04:21:05;20.50;1.00
4637;DHT22;2331;48.806;9.140;2023-08-01T04:23:33;20.40;1.00
4637;DHT22;2331;48.806;9.140;2023-08-01T04:26:00;20.40;1.00
4637;DHT22;2331;48.806;9.140;2023-08-01T04:28:26;20.30;1.00
4637;DHT22;2331;48.806;9.140;2023-08-01T04:30:54;20.40;1.00
4637;DHT22;2331;48.806;9.140;2023-08-01T04:33:21;20.30;1.00
4637;DHT22;2331;48.806;9.140;2023-08-01T04:35:48;20.40;1.00
4637;DHT22;2331;48.806;9.140;2023-08-01T04:38:15;20.40;1.00
4637;DHT22;2331;48.806;9.140;2023-08-01T04:40:42;20.40;1.00
4637;DHT22;2331;48.806;9.140;2023-08-01T04:43:09;20.40;1.00
4637;DHT22;2331;48.806;9.140;2023-08-01T04:45:36;20.30;1.00
4637;DHT22;2331;48.806;9.140;2023-08-01T04:48:04;20.40;1.00
4637;DHT22;2331;48.806;9.140;2023-08-01T04:50:31;20.40;1.00
4637;DHT22;2331;48.806;9.140;2023-08-01T04:52:57;20.40;1.00
4637;DHT22;2331;48.806;9.140;2023-08-01T04:55:24;20.40;1.00
4637;DHT22;2331;48.806;9.140;2023-08-01T04:57:51;20.50;1.00
4637;DHT22;2331;48.806;9.140;2023-08-01T05:00:18;20.40;1.00
4637;DHT22;2331;48.806;9.140;2023-08-01T05:02:44;20.40;1.00
4637;DHT22;2331;48.806;9.140;2023-08-01T05:05:12;20.40;1.00
4637;DHT22;2331;48.806;9.140;2023-08-01T05:07:41;20.40;1.00
4637;DHT22;2331;48.806;9.140;2023-08-01T05:10:09;20.40;1.00
4637;DHT22;2331;48.806;9.140;2023-08-01T05:12:36;20.40;1.00
4637;DHT22;2331;48.806;9.140;2023-08-01T05:15:03;20.40;1.00
4637;DHT22;2331;48.806;9.140;2023-08-01T05:17:30;20.40;1.00
4637;DHT22;2331;48.806;9.140;2023-08-01T05:19:56;20.50;1.00
4637;DHT22;2331;48.806;9.140;2023-08-01T05:22:24;20.60;1.00
4637;DHT22;2331;48.806;9.140;2023-08-01T05:24:51;20.70;1.00
4637;DHT22;2331;48.806;9.140;2023-08-01T05:27:18;20.80;1.00
4637;DHT22;2331;48.806;9.140;2023-08-01T05:29:45;20.80;1.00
4637;DHT22;2331;48.806;9.140;2023-08-01T05:32:11;20.90;1.00
4637;DHT22;2331;48.806;9.140;2023-08-01T05:34:38;20.90;1.00
4637;DHT22;2331;48.806;9.140;2023-08-01T05:37:05;21.00;1.00
4637;DHT22;2331;48.806;9.140;2023-08-01T05:39:42;21.00;1.00
4637;DHT22;2331;48.806;9.140;2023-08-01T05:42:09;21.00;1.00
4637;DHT22;2331;48.806;9.140;2023-08-01T05:44:35;20.90;1.00
4637;DHT22;2331;48.806;9.140;2023-08-01T05:47:02;21.00;1.00
4637;DHT22;2331;48.806;9.140;2023-08-01T05:49:29;21.00;1.00
4637;DHT22;2331;48.806;9.140;2023-08-01T05:51:56;21.10;1.00
4637;DHT22;2331;48.806;9.140;2023-08-01T05:54:23;21.10;1.00
4637;DHT22;2331;48.806;9.140;2023-08-01T05:56:51;21.00;1.00
4637;DHT22;2331;48.806;9.140;2023-08-01T05:59:18;21.00;1.00
4637;DHT22;2331;48.806;9.140;2023-08-01T06:01:45;21.00;1.00
4637;DHT22;2331;48.806;9.140;2023-08-01T06:04:12;21.10;1.00
4637;DHT22;2331;48.806;9.140;2023-08-01T06:06:38;21.00;1.00
4637;DHT22;2331;48.806;9.140;2023-08-01T06:09:05;21.00;1.00
4637;DHT22;2331;48.806;9.140;2023-08-01T06:11:32;21.00;1.00
4637;DHT22;2331;48.806;9.140;2023-08-01T06:14:01;21.10;1.00
4637;DHT22;2331;48.806;9.140;2023-08-01T06:16:28;21.10;1.00
4637;DHT22;2331;48.806;9.140;2023-08-01T06:18:55;21.30;1.00
4637;DHT22;2331;48.806;9.140;2023-08-01T06:21:22;21.30;1.00
4637;DHT22;2331;48.806;9.140;2023-08-01T06:23:49;21.30;1.00
4637;DHT22;2331;48.806;9.140;2023-08-01T06:26:16;21.20;1.00
4637;DHT22;2331;48.806;9.140;2023-08-01T06:28:42;21.20;1.00
4637;DHT22;2331;48.806;9.140;2023-08-01T06:31:10;21.10;1.00
4637;DHT22;2331;48.806;9.140;2023-08-01T06:33:37;21.10;1.00
4637;DHT22;2331;48.806;9.140;2023-08-01T06:36:05;21.10;1.00
4637;DHT22;2331;48.806;9.140;2023-08-01T06:38:32;20.90;1.00
4637;DHT22;2331;48.806;9.140;2023-08-01T06:40:58;20.80;1.00
4637;DHT22;2331;48.806;9.140;2023-08-01T06:43:25;20.90;1.00
4637;DHT22;2331;48.806;9.140;2023-08-01T06:45:52;20.80;1.00
4637;DHT22;2331;48.806;9.140;2023-08-01T06:48:20;20.70;1.00
4637;DHT22;2331;48.806;9.140;2023-08-01T06:50:47;20.60;1.00
4637;DHT22;2331;48.806;9.140;2023-08-01T06:53:14;20.40;1.00
4637;DHT22;2331;48.806;9.140;2023-08-01T06:55:41;20.40;1.00
4637;DHT22;2331;48.806;9.140;2023-08-01T06:58:08;20.20;1.00
4637;DHT22;2331;48.806;9.140;2023-08-01T07:00:34;20.30;1.00
4637;DHT22;2331;48.806;9.140;2023-08-01T07:03:02;20.20;1.00
4637;DHT22;2331;48.806;9.140;2023-08-01T07:05:30;20.10;1.00
4637;DHT22;2331;48.806;9.140;2023-08-01T07:07:56;20.20;1.00
4637;DHT22;2331;48.806;9.140;2023-08-01T07:10:23;20.20;1.00
4637;DHT22;2331;48.806;9.140;2023-08-01T07:12:50;20.20;1.00
4637;DHT22;2331;48.806;9.140;2023-08-01T07:15:17;20.10;1.00
4637;DHT22;2331;48.806;9.140;2023-08-01T07:17:43;20.10;1.00
4637;DHT22;2331;48.806;9.140;2023-08-01T07:20:11;20.10;1.00
4637;DHT22;2331;48.806;9.140;2023-08-01T07:22:39;20.00;1.00
4637;DHT22;2331;48.806;9.140;2023-08-01T07:25:07;20.00;1.00
4637;DHT22;2331;48.806;9.140;2023-08-01T07:27:34;19.80;1.00
4637;DHT22;2331;48.806;9.140;2023-08-01T07:30:03;19.80;1.00
4637;DHT22;2331;48.806;9.140;2023-08-01T07:32:30;19.80;1.00
4637;DHT22;2331;48.806;9.140;2023-08-01T07:34:57;19.60;1.00
4637;DHT22;2331;48.806;9.140;2023-08-01T07:37:23;19.70;1.00
4637;DHT22;2331;48.806;9.140;2023-08-01T07:39:55;19.70;1.00
4637;DHT22;2331;48.806;9.140;2023-08-01T07:42:21;19.70;1.00
4637;DHT22;2331;48.806;9.140;2023-08-01T07:44:48;19.60;1.00
4637;DHT22;2331;48.806;9.140;2023-08-01T07:47:15;19.60;1.00
4637;DHT22;2331;48.806;9.140;2023-08-01T07:49:42;19.60;1.00
4637;DHT22;2331;48.806;9.140;2023-08-01T07:52:08;19.50;1.00
4637;DHT22;2331;48.806;9.140;2023-08-01T07:54:36;19.50;1.00
4637;DHT22;2331;48.806;9.140;2023-08-01T07:57:04;19.40;1.00
4637;DHT22;2331;48.806;9.140;2023-08-01T07:59:31;19.40;1.00
4637;DHT22;2331;48.806;9.140;2023-08-01T08:01:58;19.50;1.00
4637;DHT22;2331;48.806;9.140;2023-08-01T08:04:25;19.50;1.00
4637;DHT22;2331;48.806;9.140;2023-08-01T08:06:52;19.60;1.00
4637;DHT22;2331;48.806;9.140;2023-08-01T08:09:20;19.60;1.00
4637;DHT22;2331;48.806;9.140;2023-08-01T08:11:48;19.60;1.00
4637;DHT22;2331;48.806;9.140;2023-08-01T08:14:17;19.60;1.00
4637;DHT22;2331;48.806;9.140;2023-08-01T08:16:46;19.70;1.00
4637;DHT22;2331;48.806;9.140;2023-08-01T08:19:12;19.70;1.00
4637;DHT22;2331;48.806;9.140;2023-08-01T08:21:39;19.70;1.00
4637;DHT22;2331;48.806;9.140;2023-08-01T08:24:06;19.60;1.00
4637;DHT22;2331;48.806;9.140;2023-08-01T08:26:32;19.60;1.00
4637;DHT22;2331;48.806;9.140;2023-08-01T08:29:02;19.60;1.00
4637;DHT22;2331;48.806;9.140;2023-08-01T08:31:31;19.60;1.00
4637;DHT22;2331;48.806;9.140;2023-08-01T08:33:58;19.70;1.00
4637;DHT22;2331;48.806;9.140;2023-08-01T08:36:25;19.60;1.00
4637;DHT22;2331;48.806;9.140;2023-08-01T08:38:51;19.70;1.00
4637;DHT22;2331;48.806;9.140;2023-08-01T08:41:20;19.70;1.00
4637;DHT22;2331;48.806;9.140;2023-08-01T08:43:48;19.70;1.00
4637;DHT22;2331;48.806;9.140;2023-08-01T08:46:16;19.70;1.00
4637;DHT22;2331;48.806;9.140;2023-08-01T08:48:44;19.70;1.00
4637;DHT22;2331;48.806;9.140;2023-08-01T08:51:13;19.80;1.00
4637;DHT22;2331;48.806;9.140;2023-08-01T08:53:40;19.90;1.00
4637;DHT22;2331;48.806;9.140;2023-08-01T08:56:09;19.90;1.00
4637;DHT22;2331;48.806;9.140;2023-08-01T08:58:36;20.00;1.00
4637;DHT22;2331;48.806;9.140;2023-08-01T09:01:05;20.00;1.00
4637;DHT22;2331;48.806;9.140;2023-08-01T09:03:33;20.10;1.00
4637;DHT22;2331;48.806;9.140;2023-08-01T09:06:04;20.10;1.00
4637;DHT22;2331;48.806;9.140;2023-08-01T09:08:36;20.20;1.00
4637;DHT22;2331;48.806;9.140;2023-08-01T09:11:03;20.20;1.00
4637;DHT22;2331;48.806;9.140;2023-08-01T09:13:30;20.20;1.00
4637;DHT22;2331;48.806;9.140;2023-08-01T09:15:57;20.20;1.00
4637;DHT22;2331;48.806;9.140;2023-08-01T09:18:24;20.20;1.00
4637;DHT22;2331;48.806;9.140;2023-08-01T09:20:51;20.20;1.00
4637;DHT22;2331;48.806;9.140;2023-08-01T09:23:20;20.20;1.00
4637;DHT22;2331;48.806;9.140;2023-08-01T09:25:47;20.20;1.00
4637;DHT22;2331;48.806;9.140;2023-08-01T09:28:18;20.20;1.00
4637;DHT22;2331;48.806;9.140;2023-08-01T09:30:47;20.20;1.00
4637;DHT22;2331;48.806;9.140;2023-08-01T09:33:14;20.30;1.00
4637;DHT22;2331;48.806;9.140;2023-08-01T09:35:42;20.40;1.00
4637;DHT22;2331;48.806;9.140;2023-08-01T09:38:10;20.40;1.00
4637;DHT22;2331;48.806;9.140;2023-08-01T09:40:45;20.50;1.00
4637;DHT22;2331;48.806;9.140;2023-08-01T09:43:12;20.40;1.00
4637;DHT22;2331;48.806;9.140;2023-08-01T09:45:49;20.50;1.00
4637;DHT22;2331;48.806;9.140;2023-08-01T09:48:25;20.50;1.00
4637;DHT22;2331;48.806;9.140;2023-08-01T09:50:52;20.50;1.00
4637;DHT22;2331;48.806;9.140;2023-08-01T09:53:19;20.60;1.00
4637;DHT22;2331;48.806;9.140;2023-08-01T09:55:49;20.60;1.00
4637;DHT22;2331;48.806;9.140;2023-08-01T09:58:17;20.60;1.00
4637;DHT22;2331;48.806;9.140;2023-08-01T10:00:47;20.50;1.00
4637;DHT22;2331;48.806;9.140;2023-08-01T10:03:16;20.60;1.00
4637;DHT22;2331;48.806;9.140;2023-08-01T10:05:44;20.60;1.00
4637;DHT22;2331;48.806;9.140;2023-08-01T10:08:12;20.70;1.00
4637;DHT22;2331;48.806;9.140;2023-08-01T10:10:40;20.60;1.00
4637;DHT22;2331;48.806;9.140;2023-08-01T10:13:12;20.70;1.00
4637;DHT22;2331;48.806;9.140;2023-08-01T10:15:39;20.80;1.00
4637;DHT22;2331;48.806;9.140;2023-08-01T10:18:07;20.80;1.00
4637;DHT22;2331;48.806;9.140;2023-08-01T10:20:35;20.90;1.00
4637;DHT22;2331;48.806;9.140;2023-08-01T10:23:03;20.90;1.00
4637;DHT22;2331;48.806;9.140;2023-08-01T10:25:30;20.90;1.00
4637;DHT22;2331;48.806;9.140;2023-08-01T10:27:58;20.90;1.00
4637;DHT22;2331;48.806;9.140;2023-08-01T10:30:28;20.90;1.00
4637;DHT22;2331;48.806;9.140;2023-08-01T10:32:55;20.80;1.00
4637;DHT22;2331;48.806;9.140;2023-08-01T10:35:32;20.80;1.00
4637;DHT22;2331;48.806;9.140;2023-08-01T10:38:04;20.80;1.00
4637;DHT22;2331;48.806;9.140;2023-08-01T10:40:38;20.90;1.00
4637;DHT22;2331;48.806;9.140;2023-08-01T10:43:06;21.00;1.00
4637;DHT22;2331;48.806;9.140;2023-08-01T10:45:34;21.00;1.00
4637;DHT22;2331;48.806;9.140;2023-08-01T10:48:07;21.10;1.00
4637;DHT22;2331;48.806;9.140;2023-08-01T10:50:34;21.00;1.00
4637;DHT22;2331;48.806;9.140;2023-08-01T10:53:05;20.90;1.00
4637;DHT22;2331;48.806;9.140;2023-08-01T10:55:39;20.80;1.00
4637;DHT22;2331;48.806;9.140;2023-08-01T10:58:07;20.80;1.00
4637;DHT22;2331;48.806;9.140;2023-08-01T11:00:35;20.80;1.00
4637;DHT22;2331;48.806;9.140;2023-08-01T11:03:02;21.00;1.00
4637;DHT22;2331;48.806;9.140;2023-08-01T11:05:29;21.00;1.00
4637;DHT22;2331;48.806;9.140;2023-08-01T11:07:57;21.00;1.00
4637;DHT22;2331;48.806;9.140;2023-08-01T11:10:26;21.10;1.00
4637;DHT22;2331;48.806;9.140;2023-08-01T11:12:53;21.20;1.00
4637;DHT22;2331;48.806;9.140;2023-08-01T11:15:20;21.40;1.00
4637;DHT22;2331;48.806;9.140;2023-08-01T11:17:50;21.50;1.00
4637;DHT22;2331;48.806;9.140;2023-08-01T11:20:20;21.50;1.00
4637;DHT22;2331;48.806;9.140;2023-08-01T11:22:52;21.70;1.00
4637;DHT22;2331;48.806;9.140;2023-08-01T11:25:20;21.70;1.00
4637;DHT22;2331;48.806;9.140;2023-08-01T11:27:46;21.70;1.00
4637;DHT22;2331;48.806;9.140;2023-08-01T11:30:13;21.70;1.00
4637;DHT22;2331;48.806;9.140;2023-08-01T11:32:40;21.80;1.00
4637;DHT22;2331;48.806;9.140;2023-08-01T11:35:08;21.80;1.00
4637;DHT22;2331;48.806;9.140;2023-08-01T11:37:35;21.80;1.00
4637;DHT22;2331;48.806;9.140;2023-08-01T11:40:03;22.00;1.00
4637;DHT22;2331;48.806;9.140;2023-08-01T11:42:31;21.90;1.00
4637;DHT22;2331;48.806;9.140;2023-08-01T11:45:07;22.00;1.00
4637;DHT22;2331;48.806;9.140;2023-08-01T11:47:34;22.00;1.00
4637;DHT22;2331;48.806;9.140;2023-08-01T11:50:01;22.00;1.00
4637;DHT22;2331;48.806;9.140;2023-08-01T11:52:30;21.90;1.00
4637;DHT22;2331;48.806;9.140;2023-08-01T11:54:57;22.00;1.00
4637;DHT22;2331;48.806;9.140;2023-08-01T11:57:24;21.80;1.00
4637;DHT22;2331;48.806;9.140;2023-08-01T11:59:54;22.00;1.00
4637;DHT22;2331;48.806;9.140;2023-08-01T12:02:22;22.00;1.00
4637;DHT22;2331;48.806;9.140;2023-08-01T12:04:49;22.00;1.00
4637;DHT22;2331;48.806;9.140;2023-08-01T12:07:16;21.90;1.00
4637;DHT22;2331;48.806;9.140;2023-08-01T12:09:54;21.90;1.00
4637;DHT22;2331;48.806;9.140;2023-08-01T12:12:21;22.10;1.00
4637;DHT22;2331;48.806;9.140;2023-08-01T12:14:48;22.10;1.00
4637;DHT22;2331;48.806;9.140;2023-08-01T12:17:14;22.10;1.00
4637;DHT22;2331;48.806;9.140;2023-08-01T12:19:42;22.00;1.00
4637;DHT22;2331;48.806;9.140;2023-08-01T12:22:12;22.00;1.00
4637;DHT22;2331;48.806;9.140;2023-08-01T12:24:40;22.10;1.00
4637;DHT22;2331;48.806;9.140;2023-08-01T12:27:08;22.10;1.00
4637;DHT22;2331;48.806;9.140;2023-08-01T12:29:35;22.20;1.00
4637;DHT22;2331;48.806;9.140;2023-08-01T12:32:03;22.30;1.00
4637;DHT22;2331;48.806;9.140;2023-08-01T12:34:30;22.50;1.00
4637;DHT22;2331;48.806;9.140;2023-08-01T12:36:57;22.50;1.00
4637;DHT22;2331;48.806;9.140;2023-08-01T12:39:23;22.30;1.00
4637;DHT22;2331;48.806;9.140;2023-08-01T12:41:51;22.40;1.00
4637;DHT22;2331;48.806;9.140;2023-08-01T12:44:19;22.50;1.00
4637;DHT22;2331;48.806;9.140;2023-08-01T12:46:47;22.50;1.00
4637;DHT22;2331;48.806;9.140;2023-08-01T12:49:14;22.70;1.00
4637;DHT22;2331;48.806;9.140;2023-08-01T12:51:41;22.70;1.00
4637;DHT22;2331;48.806;9.140;2023-08-01T12:54:07;22.90;1.00
4637;DHT22;2331;48.806;9.140;2023-08-01T12:56:34;22.90;1.00
4637;DHT22;2331;48.806;9.140;2023-08-01T12:59:01;23.00;1.00
4637;DHT22;2331;48.806;9.140;2023-08-01T13:01:29;23.10;1.00
4637;DHT22;2331;48.806;9.140;2023-08-01T13:03:56;23.20;1.00
4637;DHT22;2331;48.806;9.140;2023-08-01T13:06:22;23.40;1.00
4637;DHT22;2331;48.806;9.140;2023-08-01T13:08:49;23.30;1.00
4637;DHT22;2331;48.806;9.140;2023-08-01T13:11:16;23.20;1.00
4637;DHT22;2331;48.806;9.140;2023-08-01T13:13:43;23.30;1.00
4637;DHT22;2331;48.806;9.140;2023-08-01T13:16:11;23.20;1.00
4637;DHT22;2331;48.806;9.140;2023-08-01T13:18:39;23.30;1.00
4637;DHT22;2331;48.806;9.140;2023-08-01T13:21:09;23.30;1.00
4637;DHT22;2331;48.806;9.140;2023-08-01T13:23:37;23.30;1.00
4637;DHT22;2331;48.806;9.140;2023-08-01T13:26:03;23.30;1.00
4637;DHT22;2331;48.806;9.140;2023-08-01T13:28:30;23.30;1.00
4637;DHT22;2331;48.806;9.140;2023-08-01T13:30:57;23.40;1.00
4637;DHT22;2331;48.806;9.140;2023-08-01T13:33:24;23.50;1.00
4637;DHT22;2331;48.806;9.140;2023-08-01T13:35:53;23.50;1.00
4637;DHT22;2331;48.806;9.140;2023-08-01T13:38:20;23.60;1.00
4637;DHT22;2331;48.806;9.140;2023-08-01T13:40:47;23.70;1.00
4637;DHT22;2331;48.806;9.140;2023-08-01T13:43:13;23.80;1.00
4637;DHT22;2331;48.806;9.140;2023-08-01T13:45:40;23.80;1.00
4637;DHT22;2331;48.806;9.140;2023-08-01T13:48:08;23.70;1.00
4637;DHT22;2331;48.806;9.140;2023-08-01T13:50:35;23.80;1.00
4637;DHT22;2331;48.806;9.140;2023-08-01T13:53:03;23.70;1.00
4637;DHT22;2331;48.806;9.140;2023-08-01T13:55:32;23.90;1.00
4637;DHT22;2331;48.806;9.140;2023-08-01T13:57:59;23.90;1.00
4637;DHT22;2331;48.806;9.140;2023-08-01T14:00:26;23.90;1.00
4637;DHT22;2331;48.806;9.140;2023-08-01T14:02:52;24.00;1.00
4637;DHT22;2331;48.806;9.140;2023-08-01T14:05:19;23.90;1.00
4637;DHT22;2331;48.806;9.140;2023-08-01T14:07:46;23.90;1.00
4637;DHT22;2331;48.806;9.140;2023-08-01T14:10:14;23.90;1.00
4637;DHT22;2331;48.806;9.140;2023-08-01T14:12:41;23.90;1.00
4637;DHT22;2331;48.806;9.140;2023-08-01T14:15:08;24.00;1.00
4637;DHT22;2331;48.806;9.140;2023-08-01T14:17:35;24.10;1.00
4637;DHT22;2331;48.806;9.140;2023-08-01T14:20:02;24.20;1.00
4637;DHT22;2331;48.806;9.140;2023-08-01T14:22:30;24.30;1.00
4637;DHT22;2331;48.806;9.140;2023-08-01T14:24:57;24.20;1.00
4637;DHT22;2331;48.806;9.140;2023-08-01T14:27:25;24.30;1.00
4637;DHT22;2331;48.806;9.140;2023-08-01T14:29:52;24.10;1.00
4637;DHT22;2331;48.806;9.140;2023-08-01T14:32:19;24.30;1.00
4637;DHT22;2331;48.806;9.140;2023-08-01T14:34:46;24.50;1.00
4637;DHT22;2331;48.806;9.140;2023-08-01T14:37:12;24.60;1.00
4637;DHT22;2331;48.806;9.140;2023-08-01T14:39:39;24.70;1.00
4637;DHT22;2331;48.806;9.140;2023-08-01T14:42:06;24.60;1.00
4637;DHT22;2331;48.806;9.140;2023-08-01T14:44:34;24.40;1.00
4637;DHT22;2331;48.806;9.140;2023-08-01T14:47:01;24.60;1.00
4637;DHT22;2331;48.806;9.140;2023-08-01T14:49:27;24.50;1.00
4637;DHT22;2331;48.806;9.140;2023-08-01T14:51:54;24.50;1.00
4637;DHT22;2331;48.806;9.140;2023-08-01T14:54:21;24.60;1.00
4637;DHT22;2331;48.806;9.140;2023-08-01T14:56:50;24.60;1.00
4637;DHT22;2331;48.806;9.140;2023-08-01T14:59:17;24.80;1.00
4637;DHT22;2331;48.806;9.140;2023-08-01T15:01:45;24.70;1.00
4637;DHT22;2331;48.806;9.140;2023-08-01T15:04:11;24.70;1.00
4637;DHT22;2331;48.806;9.140;2023-08-01T15:06:38;24.80;1.00
4637;DHT22;2331;48.806;9.140;2023-08-01T15:09:05;24.70;1.00
4637;DHT22;2331;48.806;9.140;2023-08-01T15:11:31;24.70;1.00
4637;DHT22;2331;48.806;9.140;2023-08-01T15:13:58;24.80;1.00
4637;DHT22;2331;48.806;9.140;2023-08-01T15:16:25;24.80;1.00
4637;DHT22;2331;48.806;9.140;2023-08-01T15:18:53;24.80;1.00
4637;DHT22;2331;48.806;9.140;2023-08-01T15:21:19;24.80;1.00
4637;DHT22;2331;48.806;9.140;2023-08-01T15:23:46;25.10;1.00
4637;DHT22;2331;48.806;9.140;2023-08-01T15:26:13;25.20;1.00
4637;DHT22;2331;48.806;9.140;2023-08-01T15:28:39;25.20;1.00
4637;DHT22;2331;48.806;9.140;2023-08-01T15:31:08;25.10;1.00
4637;DHT22;2331;48.806;9.140;2023-08-01T15:33:36;25.20;1.00
4637;DHT22;2331;48.806;9.140;2023-08-01T15:36:07;25.10;1.00
4637;DHT22;2331;48.806;9.140;2023-08-01T15:38:35;25.00;1.00
4637;DHT22;2331;48.806;9.140;2023-08-01T15:41:02;25.00;1.00
4637;DHT22;2331;48.806;9.140;2023-08-01T15:43:34;25.10;1.00
4637;DHT22;2331;48.806;9.140;2023-08-01T15:46:02;25.20;1.00
4637;DHT22;2331;48.806;9.140;2023-08-01T15:48:29;25.20;1.00
4637;DHT22;2331;48.806;9.140;2023-08-01T15:50:55;25.20;1.00
4637;DHT22;2331;48.806;9.140;2023-08-01T15:53:23;25.30;1.00
4637;DHT22;2331;48.806;9.140;2023-08-01T15:55:54;25.30;1.00
4637;DHT22;2331;48.806;9.140;2023-08-01T15:58:21;25.30;1.00
4637;DHT22;2331;48.806;9.140;2023-08-01T16:00:48;25.30;1.00
4637;DHT22;2331;48.806;9.140;2023-08-01T16:03:15;24.90;1.00
4637;DHT22;2331;48.806;9.140;2023-08-01T16:05:41;25.00;1.00
4637;DHT22;2331;48.806;9.140;2023-08-01T16:08:08;24.90;1.00
4637;DHT22;2331;48.806;9.140;2023-08-01T16:10:36;25.20;1.00
4637;DHT22;2331;48.806;9.140;2023-08-01T16:13:03;25.20;1.00
4637;DHT22;2331;48.806;9.140;2023-08-01T16:15:29;25.10;1.00
4637;DHT22;2331;48.806;9.140;2023-08-01T16:17:56;25.10;1.00